createdAt,value
2024-01-07T00:01:34.357Z,25.83
2024-01-07T00:05:36.970Z,22.87
2024-01-07T00:09:38.616Z,22.07
2024-01-07T00:13:40.185Z,23.43
2024-01-07T00:17:43.269Z,23.47
2024-01-07T00:21:44.910Z,23.80
2024-01-07T00:25:47.547Z,24.73
2024-01-07T00:29:49.103Z,24.50
2024-01-07T00:33:52.162Z,22.47
2024-01-07T00:37:53.869Z,22.60
2024-01-07T00:41:55.443Z,24.00
2024-01-07T00:45:57.088Z,23.83
2024-01-07T00:50:00.027Z,24.43
2024-01-07T00:54:01.514Z,22.97
2024-01-07T00:58:03.377Z,22.60
2024-01-07T01:02:05.043Z,23.77
2024-01-07T01:06:08.098Z,22.53
2024-01-07T01:10:10.727Z,21.37
2024-01-07T01:14:12.206Z,21.40
2024-01-07T01:18:13.942Z,20.67
2024-01-07T01:22:16.907Z,20.03
2024-01-07T01:26:18.470Z,20.13
2024-01-07T01:30:20.117Z,20.33
2024-01-07T01:34:21.850Z,19.50
2024-01-07T01:38:24.744Z,17.93
2024-01-07T01:42:26.336Z,18.30
2024-01-07T01:46:29.963Z,19.63
2024-01-07T01:50:31.507Z,19.27
2024-01-07T01:54:34.775Z,18.63
2024-01-07T01:58:37.733Z,18.83
2024-01-07T02:02:39.284Z,17.40
2024-01-07T02:06:40.851Z,16.07
2024-01-07T02:10:43.917Z,15.33
2024-01-07T02:14:45.465Z,15.37
2024-01-07T02:18:47.401Z,14.43
2024-01-07T02:22:49.014Z,13.90
2024-01-07T02:26:51.955Z,14.23
2024-01-07T02:30:53.549Z,14.03
2024-01-07T02:34:55.188Z,12.90
2024-01-07T02:38:56.781Z,12.50
2024-01-07T02:42:59.689Z,12.10
2024-01-07T02:47:01.314Z,12.73
2024-01-07T02:51:02.947Z,12.93
2024-01-07T02:55:05.116Z,12.60
2024-01-07T02:59:08.071Z,11.53
2024-01-07T03:03:09.669Z,12.73
2024-01-07T03:07:11.367Z,13.23
2024-01-07T03:11:13.021Z,13.27
2024-01-07T03:15:15.915Z,13.77
2024-01-07T03:19:17.484Z,13.60
2024-01-07T03:23:18.979Z,12.03
2024-01-07T03:27:20.560Z,12.50
2024-01-07T03:31:23.546Z,13.40
2024-01-07T03:35:25.269Z,13.47
2024-01-07T03:39:26.940Z,13.93
2024-01-07T03:43:28.467Z,12.27
2024-01-07T03:47:32.364Z,12.57
2024-01-07T03:51:34.000Z,12.50
2024-01-07T03:55:35.642Z,13.30
2024-01-07T03:59:37.134Z,13.20
2024-01-07T04:03:40.309Z,12.63
2024-01-07T04:07:41.918Z,12.53
2024-01-07T04:11:43.946Z,12.83
2024-01-07T04:15:45.602Z,13.23
2024-01-07T04:19:48.470Z,13.30
2024-01-07T04:23:49.998Z,13.47
2024-01-07T04:27:51.476Z,13.93
2024-01-07T04:31:53.125Z,12.90
2024-01-07T04:35:55.987Z,12.83
2024-01-07T04:39:57.502Z,13.23
2024-01-07T04:43:59.044Z,12.70
2024-01-07T04:48:00.684Z,14.50
2024-01-07T04:52:04.144Z,15.33
2024-01-07T04:56:06.427Z,17.30
2024-01-07T05:00:08.749Z,16.43
2024-01-07T05:04:10.239Z,16.03
2024-01-07T05:08:14.272Z,16.83
2024-01-07T05:12:15.827Z,17.40
2024-01-07T05:16:20.172Z,16.83
2024-01-07T05:20:21.696Z,16.93
2024-01-07T05:24:25.615Z,17.93
2024-01-07T05:28:27.101Z,16.13
2024-01-07T05:32:28.836Z,15.50
2024-01-07T05:36:30.561Z,16.07
2024-01-07T05:40:33.424Z,15.93
2024-01-07T05:44:35.003Z,16.67
2024-01-07T05:48:42.415Z,15.87
2024-01-07T05:52:44.038Z,15.30
2024-01-07T05:56:46.940Z,16.63
2024-01-07T06:00:48.494Z,16.07
2024-01-07T06:04:50.152Z,16.17
2024-01-07T06:08:51.691Z,16.60
2024-01-07T06:12:54.523Z,15.67
2024-01-07T06:16:56.111Z,16.43
2024-01-07T06:20:57.643Z,16.00
2024-01-07T06:24:59.301Z,14.87
2024-01-07T06:29:02.249Z,14.87
2024-01-07T06:33:04.374Z,14.80
2024-01-07T06:37:06.303Z,15.80
2024-01-07T06:41:07.902Z,13.90
2024-01-07T06:45:12.150Z,14.47
2024-01-07T06:49:13.851Z,13.67
2024-01-07T06:53:15.450Z,14.23
2024-01-07T06:57:17.233Z,14.33
2024-01-07T07:01:23.835Z,13.60
2024-01-07T07:05:25.481Z,13.80
2024-01-07T07:09:27.060Z,14.33
2024-01-07T07:13:28.634Z,15.13
2024-01-07T07:17:31.567Z,14.57
2024-01-07T07:21:35.099Z,14.27
2024-01-07T07:25:36.626Z,13.87
2024-01-07T07:29:38.106Z,14.97
2024-01-07T07:33:41.496Z,13.40
2024-01-07T07:37:43.136Z,13.60
2024-01-07T07:41:44.807Z,15.13
2024-01-07T07:45:46.438Z,14.67
2024-01-07T07:49:49.388Z,13.97
2024-01-07T07:53:51.026Z,13.83
2024-01-07T07:57:52.634Z,13.83
2024-01-07T08:01:54.397Z,13.53
2024-01-07T08:05:57.387Z,12.83
2024-01-07T08:09:59.926Z,12.10
2024-01-07T08:14:01.450Z,12.13
2024-01-07T08:18:03.014Z,12.43
2024-01-07T08:22:06.086Z,13.67
2024-01-07T08:26:07.697Z,12.73
2024-01-07T08:30:10.028Z,12.87
2024-01-07T08:34:11.656Z,13.03
2024-01-07T08:38:14.630Z,13.13
2024-01-07T08:42:16.173Z,13.90
2024-01-07T08:46:17.902Z,13.17
2024-01-07T08:50:19.444Z,12.97
2024-01-07T08:54:22.348Z,14.10
2024-01-07T08:58:23.891Z,13.67
2024-01-07T09:02:25.637Z,14.13
2024-01-07T09:06:27.172Z,13.83
2024-01-07T09:10:29.994Z,14.33
2024-01-07T09:14:31.571Z,14.03
2024-01-07T09:18:33.195Z,14.10
2024-01-07T09:22:35.101Z,13.43
2024-01-07T09:26:37.964Z,13.80
2024-01-07T09:30:39.752Z,14.80
2024-01-07T09:34:41.491Z,14.20
2024-01-07T09:38:43.144Z,14.13
2024-01-07T09:42:46.796Z,14.30
2024-01-07T09:46:50.435Z,13.80
2024-01-07T09:50:52.888Z,13.23
2024-01-07T09:54:59.535Z,12.50
2024-01-07T09:59:02.980Z,11.73
2024-01-07T10:03:05.082Z,11.87
2024-01-07T10:07:07.633Z,12.37
2024-01-07T10:11:09.170Z,11.70
2024-01-07T10:15:13.122Z,12.17
2024-01-07T10:19:20.721Z,11.07
2024-01-07T10:23:22.288Z,10.53
2024-01-07T10:27:24.075Z,10.60
2024-01-07T10:31:27.061Z,11.40
2024-01-07T10:35:33.285Z,9.60
2024-01-07T10:39:35.020Z,8.87
2024-01-07T10:43:39.602Z,7.83
2024-01-07T10:47:49.254Z,8.37
2024-01-07T10:52:03.012Z,8.20
2024-01-07T10:56:06.073Z,8.93
2024-01-07T11:00:08.772Z,9.27
2024-01-07T11:04:18.610Z,8.83
2024-01-07T11:08:26.505Z,9.60
2024-01-07T11:12:28.438Z,9.60
2024-01-07T11:16:43.357Z,9.67
2024-01-07T11:20:46.954Z,10.53
2024-01-07T11:24:48.567Z,10.63
2024-01-07T11:28:52.295Z,10.17
2024-01-07T11:33:00.988Z,10.87
2024-01-07T11:37:08.268Z,9.67
2024-01-07T11:41:12.514Z,10.10
2024-01-07T11:45:14.050Z,10.53
2024-01-07T11:49:15.729Z,9.30
2024-01-07T11:53:19.266Z,10.20
2024-01-07T11:57:20.872Z,10.17
2024-01-07T12:01:22.454Z,10.40
2024-01-07T12:05:24.153Z,9.97
2024-01-07T12:09:27.470Z,9.57
2024-01-07T12:13:29.327Z,9.63
2024-01-07T12:17:30.937Z,8.87
2024-01-07T12:21:32.532Z,8.60
2024-01-07T12:25:35.849Z,8.77
2024-01-07T12:29:37.452Z,8.47
2024-01-07T12:33:39.797Z,8.10
2024-01-07T12:37:43.455Z,8.23
2024-01-07T12:41:46.307Z,7.43
2024-01-07T12:45:48.875Z,8.23
2024-01-07T12:49:50.485Z,8.07
2024-01-07T12:53:52.317Z,8.47
2024-01-07T12:57:55.311Z,7.80
2024-01-07T13:01:57.240Z,7.40
2024-01-07T13:05:58.847Z,7.70
2024-01-07T13:10:00.678Z,8.27
2024-01-07T13:14:03.909Z,7.13
2024-01-07T13:18:05.775Z,6.50
2024-01-07T13:22:07.684Z,6.50
2024-01-07T13:26:09.230Z,6.03
2024-01-07T13:30:12.617Z,5.57
2024-01-07T13:34:14.300Z,4.70
2024-01-07T13:38:15.849Z,4.50
2024-01-07T13:42:17.331Z,5.60
2024-01-07T13:46:20.399Z,5.00
2024-01-07T13:50:21.985Z,5.33
2024-01-07T13:54:23.646Z,5.13
2024-01-07T13:58:25.302Z,4.67
2024-01-07T14:02:28.349Z,4.40
2024-01-07T14:06:29.894Z,4.50
2024-01-07T14:10:31.462Z,4.73
2024-01-07T14:14:33.455Z,4.20
2024-01-07T14:18:36.417Z,4.57
2024-01-07T14:22:38.034Z,4.60
2024-01-07T14:26:39.511Z,4.50
2024-01-07T14:30:41.290Z,4.23
2024-01-07T14:34:44.382Z,4.77
2024-01-07T14:38:46.422Z,4.50
2024-01-07T14:42:47.956Z,4.00
2024-01-07T14:46:49.578Z,4.70
2024-01-07T14:50:52.432Z,3.83
2024-01-07T14:54:54.033Z,3.80
2024-01-07T14:58:55.869Z,3.77
2024-01-07T15:02:58.411Z,3.70
2024-01-07T15:07:01.323Z,3.20
2024-01-07T15:11:02.908Z,3.50
2024-01-07T15:15:05.143Z,2.87
2024-01-07T15:19:06.952Z,3.90
2024-01-07T15:23:10.012Z,3.83
2024-01-07T15:27:11.553Z,3.70
2024-01-07T15:31:13.324Z,2.90
2024-01-07T15:35:15.105Z,3.17
2024-01-07T15:39:18.032Z,2.73
2024-01-07T15:43:19.620Z,2.83
2024-01-07T15:47:21.153Z,2.67
2024-01-07T15:51:22.988Z,2.60
2024-01-07T15:55:25.972Z,2.20
2024-01-07T15:59:28.556Z,2.30
2024-01-07T16:03:30.163Z,2.23
2024-01-07T16:07:31.691Z,2.40
2024-01-07T16:11:34.589Z,2.20
2024-01-07T16:15:36.159Z,2.00
2024-01-07T16:19:37.792Z,2.17
2024-01-07T16:23:39.398Z,2.20
2024-01-07T16:27:42.258Z,2.33
2024-01-07T16:31:43.997Z,2.37
2024-01-07T16:35:45.552Z,2.10
2024-01-07T16:39:48.651Z,2.30
2024-01-07T16:43:51.532Z,2.20
2024-01-07T16:47:53.220Z,2.30
2024-01-07T16:51:55.028Z,2.23
2024-01-07T16:55:56.709Z,2.23
2024-01-07T16:59:59.566Z,2.50
2024-01-07T17:04:01.210Z,2.27
2024-01-07T17:08:02.973Z,2.50
2024-01-07T17:12:05.062Z,2.03
2024-01-07T17:16:08.289Z,2.00
2024-01-07T17:20:10.538Z,2.27
2024-01-07T17:24:12.136Z,2.30
2024-01-07T17:28:13.632Z,1.90
2024-01-07T17:32:16.521Z,1.90
2024-01-07T17:36:18.082Z,1.67
2024-01-07T17:40:19.588Z,1.73
2024-01-07T17:44:21.311Z,2.37
2024-01-07T17:48:24.287Z,2.30
2024-01-07T17:52:25.869Z,2.30
2024-01-07T17:56:27.616Z,2.33
2024-01-07T18:00:30.428Z,2.00
2024-01-07T18:04:34.048Z,2.50
2024-01-07T18:08:42.406Z,2.10
2024-01-07T18:12:51.167Z,2.57
2024-01-07T18:16:52.726Z,2.23
2024-01-07T18:20:55.662Z,2.40
2024-01-07T18:24:57.254Z,2.20
2024-01-07T18:28:58.838Z,2.30
2024-01-07T18:33:01.550Z,2.20
2024-01-07T18:37:04.531Z,1.90
2024-01-07T18:41:06.104Z,1.87
2024-01-07T18:45:08.452Z,1.77
2024-01-07T18:49:09.935Z,2.20
2024-01-07T18:53:12.911Z,1.87
2024-01-07T18:57:14.418Z,1.43
2024-01-07T19:01:16.062Z,1.60
2024-01-07T19:05:17.997Z,1.60
2024-01-07T19:09:21.058Z,1.60
2024-01-07T19:13:23.735Z,1.80
2024-01-07T19:17:25.331Z,1.83
2024-01-07T19:21:26.933Z,1.90
2024-01-07T19:25:29.796Z,1.57
2024-01-07T19:29:31.504Z,1.93
2024-01-07T19:33:33.180Z,1.63
2024-01-07T19:37:34.851Z,1.60
2024-01-07T19:41:37.760Z,1.57
2024-01-07T19:45:40.486Z,2.00
2024-01-07T19:49:42.151Z,1.80
2024-01-07T19:53:43.838Z,2.30
2024-01-07T19:57:46.768Z,2.13
2024-01-07T20:01:49.520Z,1.90
2024-01-07T20:05:51.175Z,2.10
2024-01-07T20:09:52.813Z,2.50
2024-01-07T20:13:55.703Z,2.07
2024-01-07T20:17:57.345Z,2.30
2024-01-07T20:21:59.929Z,2.03
2024-01-07T20:26:02.342Z,2.00
2024-01-07T20:30:08.080Z,2.07
2024-01-07T20:34:09.641Z,2.00
2024-01-07T20:38:11.305Z,1.77
2024-01-07T20:42:22.543Z,2.20
2024-01-07T20:46:34.767Z,2.20
2024-01-07T20:50:36.621Z,2.37
2024-01-07T20:54:39.121Z,2.13
2024-01-07T20:58:40.690Z,2.20
2024-01-07T21:02:43.626Z,2.47
2024-01-07T21:06:45.101Z,2.60
2024-01-07T21:10:46.579Z,2.30
2024-01-07T21:14:48.148Z,2.70
2024-01-07T21:18:51.406Z,2.60
2024-01-07T21:22:53.058Z,2.30
2024-01-07T21:26:54.697Z,2.60
2024-01-07T21:30:56.373Z,2.60
2024-01-07T21:34:59.550Z,2.80
2024-01-07T21:39:01.102Z,2.47
2024-01-07T21:43:02.893Z,2.33
2024-01-07T21:47:04.860Z,2.53
2024-01-07T21:51:07.738Z,2.40
2024-01-07T21:55:09.367Z,2.07
2024-01-07T21:59:10.985Z,2.20
2024-01-07T22:03:12.787Z,2.30
2024-01-07T22:07:15.851Z,2.17
2024-01-07T22:11:17.443Z,2.40
2024-01-07T22:15:19.184Z,3.00
2024-01-07T22:19:21.919Z,2.60
2024-01-07T22:23:24.903Z,2.57
2024-01-07T22:27:26.567Z,2.90
2024-01-07T22:31:28.192Z,2.30
2024-01-07T22:35:29.948Z,2.33
2024-01-07T22:39:33.021Z,2.30
2024-01-07T22:43:34.477Z,2.00
2024-01-07T22:47:36.059Z,1.90
2024-01-07T22:51:40.938Z,1.77
2024-01-07T22:55:43.787Z,1.73
2024-01-07T22:59:45.481Z,1.90
2024-01-07T23:03:47.057Z,1.70
2024-01-07T23:07:48.635Z,1.73
2024-01-07T23:11:51.489Z,1.80
2024-01-07T23:15:53.035Z,2.00
2024-01-07T23:19:54.691Z,1.90
2024-01-07T23:23:56.323Z,2.10
2024-01-07T23:27:59.117Z,2.10
2024-01-07T23:32:02.941Z,1.70
2024-01-07T23:36:06.741Z,2.13
2024-01-07T23:40:09.796Z,2.03
2024-01-07T23:44:12.757Z,2.20
2024-01-07T23:48:14.639Z,2.30
2024-01-07T23:52:16.233Z,2.27
2024-01-07T23:56:17.811Z,2.53
